Time,TemperatureF,DewpointF,PressureIn,WindDirection,WindDirectionDegrees,WindSpeedMPH,WindSpeedGustMPH,Humidity,HourlyPrecipIn,Conditions,Clouds,dailyrainin,SoftwareType,DateUTC
2013-03-25 00:02:00,43.0,-99.9,-100.00,WNW,293,2.0,3.0,-999,-99.99,,,-99.99,,2013-03-25 06:02:00,
2013-03-25 00:12:00,43.0,-99.9,-100.00,WNW,293,2.0,3.0,-999,-99.99,,,-99.99,,2013-03-25 06:12:00,
2013-03-25 00:22:00,47.0,-99.9,-100.00,North,3,1.0,2.0,-999,-99.99,,,-99.99,,2013-03-25 06:22:00,
2013-03-25 00:33:00,47.0,-99.9,-100.00,North,3,1.0,2.0,-999,-99.99,,,-99.99,,2013-03-25 06:33:00,
2013-03-25 00:43:00,47.0,-99.9,-100.00,North,3,1.0,2.0,-999,-99.99,,,-99.99,,2013-03-25 06:43:00,
2013-03-25 03:33:00,40.0,-99.9,-100.00,WSW,254,2.0,2.0,-999,-99.99,,,-99.99,,2013-03-25 09:33:00,
2013-03-25 03:43:00,40.0,-99.9,-100.00,WSW,254,2.0,2.0,-999,-99.99,,,-99.99,,2013-03-25 09:43:00,
2013-03-25 04:00:00,34.0,-99.9,-100.00,WNW,293,1.0,2.0,-999,-99.99,,,-99.99,,2013-03-25 10:00:00,
2013-03-25 04:54:00,34.0,-99.9,-100.00,WNW,293,1.0,2.0,-999,-99.99,,,-99.99,,2013-03-25 10:54:00,
2013-03-25 06:03:00,35.0,-99.9,-100.00,WSW,250,2.0,2.0,-999,-99.99,,,-99.99,,2013-03-25 12:03:00,
2013-03-25 06:13:00,35.0,-99.9,-100.00,WSW,250,2.0,2.0,-999,-99.99,,,-99.99,,2013-03-25 12:13:00,
2013-03-25 06:33:00,36.0,-99.9,-100.00,SW,236,2.0,3.0,-999,-99.99,,,-99.99,,2013-03-25 12:33:00,
2013-03-25 06:43:00,36.0,-99.9,-100.00,SW,236,2.0,3.0,-999,-99.99,,,-99.99,,2013-03-25 12:43:00,
2013-03-25 08:03:00,34.0,-99.9,-100.00,West,261,2.0,3.0,-999,-99.99,,,-99.99,,2013-03-25 14:03:00,
2013-03-25 08:13:00,34.0,-99.9,-100.00,West,261,2.0,3.0,-999,-99.99,,,-99.99,,2013-03-25 14:13:00,
2013-03-25 09:30:00,43.0,-99.9,-100.00,WSW,252,7.0,9.0,-999,-99.99,,,-99.99,,2013-03-25 15:30:00,
2013-03-25 10:04:00,43.0,-99.9,-100.00,West,264,7.0,8.0,-999,-99.99,,,-99.99,,2013-03-25 16:04:00,
2013-03-25 10:13:00,43.0,-99.9,-100.00,West,264,7.0,8.0,-999,-99.99,,,-99.99,,2013-03-25 16:13:00,
2013-03-25 10:24:00,43.0,-99.9,-100.00,WSW,252,7.0,9.0,-999,-99.99,,,-99.99,,2013-03-25 16:24:00,
2013-03-25 13:23:00,49.0,-99.9,-100.00,SW,222,2.0,6.0,-999,-99.99,,,-99.99,,2013-03-25 19:23:00,
2013-03-25 13:33:00,54.0,-99.9,-100.00,WSW,251,4.0,7.0,-999,-99.99,,,-99.99,,2013-03-25 19:33:00,
2013-03-25 13:43:00,54.0,-99.9,-100.00,WSW,251,4.0,7.0,-999,-99.99,,,-99.99,,2013-03-25 19:43:00,
2013-03-25 13:53:00,53.0,-99.9,-100.00,West,276,3.0,6.0,-999,-99.99,,,-99.99,,2013-03-25 19:53:00,
2013-03-25 14:02:00,53.0,-99.9,-100.00,West,276,3.0,6.0,-999,-99.99,,,-99.99,,2013-03-25 20:02:00,
2013-03-25 14:22:00,54.0,-99.9,-100.00,WSW,250,2.0,5.0,-999,-99.99,,,-99.99,,2013-03-25 20:22:00,
2013-03-25 14:32:00,54.0,-99.9,-100.00,WSW,250,2.0,5.0,-999,-99.99,,,-99.99,,2013-03-25 20:32:00,
2013-03-25 15:20:00,55.0,-99.9,-100.00,WNW,292,3.0,4.0,-999,-99.99,,,-99.99,,2013-03-25 21:20:00,
2013-03-25 15:50:00,58.0,-99.9,-100.00,NNW,334,2.0,4.0,-999,-99.99,,,-99.99,,2013-03-25 21:50:00,
2013-03-25 16:04:00,55.0,-99.9,-100.00,WNW,292,3.0,4.0,-999,-99.99,,,-99.99,,2013-03-25 22:04:00,
2013-03-25 16:13:00,55.0,-99.9,-100.00,WNW,292,3.0,4.0,-999,-99.99,,,-99.99,,2013-03-25 22:13:00,
2013-03-25 16:33:00,58.0,-99.9,-100.00,NNW,334,2.0,4.0,-999,-99.99,,,-99.99,,2013-03-25 22:33:00,
2013-03-25 16:43:00,58.0,-99.9,-100.00,NNW,334,2.0,4.0,-999,-99.99,,,-99.99,,2013-03-25 22:43:00,
2013-03-25 17:20:00,59.0,-99.9,-100.00,WNW,284,3.0,4.0,-999,-99.99,,,-99.99,,2013-03-25 23:20:00,
2013-03-25 18:00:00,59.0,-99.9,-100.00,WNW,283,3.0,6.0,-999,-99.99,,,-99.99,,2013-03-26 00:00:00,
2013-03-25 18:02:00,59.0,-99.9,-100.00,WNW,284,3.0,4.0,-999,-99.99,,,-99.99,,2013-03-26 00:02:00,
2013-03-25 18:12:00,59.0,-99.9,-100.00,WNW,284,3.0,4.0,-999,-99.99,,,-99.99,,2013-03-26 00:12:00,
2013-03-25 18:53:00,59.0,-99.9,-100.00,WNW,283,3.0,6.0,-999,-99.99,,,-99.99,,2013-03-26 00:53:00,
2013-03-25 21:22:00,50.0,-99.9,-100.00,WSW,251,5.0,6.0,-999,-99.99,,,-99.99,,2013-03-26 03:22:00,
2013-03-25 21:34:00,50.0,-99.9,-100.00,West,277,7.0,7.0,-999,-99.99,,,-99.99,,2013-03-26 03:34:00,
2013-03-25 21:43:00,50.0,-99.9,-100.00,West,277,7.0,7.0,-999,-99.99,,,-99.99,,2013-03-26 03:43:00,
2013-03-25 21:53:00,50.0,-99.9,-100.00,West,277,7.0,7.0,-999,-99.99,,,-99.99,,2013-03-26 03:53:00,
2013-03-25 22:04:00,45.0,-99.9,-100.00,WNW,302,1.0,1.0,-999,-99.99,,,-99.99,,2013-03-26 04:04:00,
2013-03-25 22:13:00,45.0,-99.9,-100.00,WNW,302,1.0,1.0,-999,-99.99,,,-99.99,,2013-03-26 04:13:00,
2013-03-25 22:23:00,44.0,-99.9,-100.00,WSW,252,2.0,2.0,-999,-99.99,,,-99.99,,2013-03-26 04:23:00,
2013-03-25 22:33:00,44.0,-99.9,-100.00,WSW,252,2.0,2.0,-999,-99.99,,,-99.99,,2013-03-26 04:33:00,
2013-03-25 22:43:00,44.0,-99.9,-100.00,WSW,252,2.0,2.0,-999,-99.99,,,-99.99,,2013-03-26 04:43:00,
2013-03-25 22:53:00,42.0,-99.9,-100.00,WNW,292,1.0,2.0,-999,-99.99,,,-99.99,,2013-03-26 04:53:00,
2013-03-25 23:03:00,42.0,-99.9,-100.00,WNW,292,1.0,2.0,-999,-99.99,,,-99.99,,2013-03-26 05:03:00,
2013-03-25 23:13:00,42.0,-99.9,-100.00,WNW,292,1.0,2.0,-999,-99.99,,,-99.99,,2013-03-26 05:13:00,